Time;durP1;ratioP1;P1;durP2;ratioP2;P2;SDS_P1;SDS_P2;PMS_P1;PMS_P2;Temp;Humidity;BMP_temperature;BMP_pressure;BME280_temperature;BME280_humidity;BME280_pressure;Samples;Min_cycle;Max_cycle;Signal;HPM_P1;HPM_P2
2023/05/10 00:01:29;;;;;;;;;;;;;;;15.15;43.19;100820.75;4114327;28;19926;-66
2023/05/10 00:03:31;;;;;;;;;;;;;;;15.16;43.53;100813.41;4115734;28;20464;-66
2023/05/10 00:05:33;;;;;;;;;;;;;;;15.17;43.89;100821.34;4114909;28;20009;-66
2023/05/10 00:07:35;;;;;;;;;;;;;;;15.11;43.92;100817.59;4116452;28;20021;-66
2023/05/10 00:09:38;;;;;;;;;;;;;;;15.16;43.49;100813.41;4115783;28;20049;-66
2023/05/10 00:11:40;;;;;;;;;;;;;;;15.10;43.71;100805.03;4115435;28;20044;-66
2023/05/10 00:13:42;;;;;;;;;;;;;;;15.05;43.87;100815.69;4115243;28;20104;-66
2023/05/10 00:15:44;;;;;;;;;;;;;;;15.00;44.13;100811.91;4115980;28;19972;-66
2023/05/10 00:17:46;;;;;;;;;;;;;;;14.95;44.71;100809.78;4115276;28;20020;-66
2023/05/10 00:19:48;;;;;;;;;;;;;;;14.93;44.74;100807.28;4115992;28;19938;-66
2023/05/10 00:21:50;;;;;;;;;;;;;;;14.87;44.99;100807.25;4115897;28;20026;-66
2023/05/10 00:23:52;;;;;;;;;;;;;;;14.84;44.99;100800.34;4114778;28;20016;-66
2023/05/10 00:26:03;;;;;;;;;;;;;;;14.84;44.61;100807.66;4115597;28;20032;-66
2023/05/10 00:28:05;;;;;;;;;;;;;;;14.85;44.70;100798.47;4116042;28;20009;-66
2023/05/10 00:30:08;;;;;;;;;;;;;;;14.81;44.59;100794.47;4122027;28;20471;-66
2023/05/10 00:32:10;;;;;;;;;;;;;;;14.81;45.12;100797.19;4112351;28;20468;-66
2023/05/10 00:34:13;;;;;;;;;;;;;;;14.75;45.05;100790.72;4098451;29;20375;-66
2023/05/10 00:36:15;;;;;;;;;;;;;;;14.72;45.30;100791.13;4121725;28;20020;-66
2023/05/10 00:38:17;;;;;;;;;;;;;;;14.67;45.29;100786.28;4121961;28;20013;-66
2023/05/10 00:40:20;;;;;;;;;;;;;;;14.63;45.25;100774.13;4114923;28;20435;-67
2023/05/10 00:42:27;;;;;;;;;;;;;;;14.58;45.82;100782.03;4113154;28;20024;-66
2023/05/10 00:44:31;;;;;;;;;;;;;;;14.55;45.92;100777.00;4113678;28;20024;-66
2023/05/10 00:46:33;;;;;;;;;;;;;;;14.51;45.72;100776.56;4121316;28;20882;-66
2023/05/10 00:48:35;;;;;;;;;;;;;;;14.48;46.00;100773.41;4120731;28;20033;-66
2023/05/10 00:50:37;;;;;;;;;;;;;;;14.51;45.90;100778.44;4121205;28;20024;-66
2023/05/10 00:52:39;;;;;;;;;;;;;;;14.51;46.08;100775.72;4114717;28;20021;-66
2023/05/10 00:54:41;;;;;;;;;;;;;;;14.52;45.70;100772.81;4114280;28;20026;-67
2023/05/10 00:56:48;;;;;;;;;;;;;;;14.48;45.90;100767.97;4112879;28;20024;-66
2023/05/10 00:58:53;;;;;;;;;;;;;;;14.44;45.87;100767.53;4115320;28;20025;-66
2023/05/10 01:00:56;;;;;;;;;;;;;;;14.36;46.30;100763.13;4108844;28;19930;-66
2023/05/10 01:02:57;;;;;;;;;;;;;;;14.30;46.66;100763.09;4112995;28;20028;-66
2023/05/10 01:04:59;;;;;;;;;;;;;;;14.27;46.47;100763.50;4113963;28;20448;-66
2023/05/10 01:07:01;;;;;;;;;;;;;;;14.26;46.69;100762.63;4113463;28;20021;-66
2023/05/10 01:09:03;;;;;;;;;;;;;;;14.26;46.43;100756.38;4115856;28;20041;-66
2023/05/10 01:11:06;;;;;;;;;;;;;;;14.26;46.70;100757.19;4114764;28;20442;-66
2023/05/10 01:13:08;;;;;;;;;;;;;;;14.27;46.30;100756.16;4114074;28;20024;-66
2023/05/10 01:15:11;;;;;;;;;;;;;;;14.22;46.59;100751.34;4113615;28;20022;-66
2023/05/10 01:17:13;;;;;;;;;;;;;;;14.19;46.83;100754.47;4111542;28;20475;-66
2023/05/10 01:19:20;;;;;;;;;;;;;;;14.16;47.10;100745.88;4115206;28;20029;-66
2023/05/10 01:21:25;;;;;;;;;;;;;;;14.16;46.85;100746.72;4115320;28;19930;-66
2023/05/10 01:23:32;;;;;;;;;;;;;;;14.13;46.87;100741.69;4114662;28;20386;-66
2023/05/10 01:25:52;;;;;;;;;;;;;;;14.11;47.03;100742.94;4112661;28;20028;-66
2023/05/10 01:27:59;;;;;;;;;;;;;;;14.09;47.20;100742.28;4101002;28;20468;-66
2023/05/10 01:30:03;;;;;;;;;;;;;;;14.17;46.46;100750.25;4114412;28;20052;-66
2023/05/10 01:32:12;;;;;;;;;;;;;;;14.13;47.25;100738.13;4112158;28;20017;-66
2023/05/10 01:34:16;;;;;;;;;;;;;;;14.13;47.15;100744.38;4114656;28;20024;-66
2023/05/10 01:36:25;;;;;;;;;;;;;;;14.11;46.85;100741.06;4090196;28;20026;-66
2023/05/10 01:38:31;;;;;;;;;;;;;;;14.11;47.09;100742.94;4114455;28;20462;-67
2023/05/10 01:40:37;;;;;;;;;;;;;;;14.05;47.25;100736.41;4115009;28;20481;-66
2023/05/10 01:42:41;;;;;;;;;;;;;;;14.00;47.34;100737.00;4113785;28;20340;-66
2023/05/10 01:44:45;;;;;;;;;;;;;;;14.02;47.62;100737.63;4121579;28;20028;-66
2023/05/10 01:46:50;;;;;;;;;;;;;;;14.00;47.54;100733.47;4120417;28;20025;-66
2023/05/10 01:48:55;;;;;;;;;;;;;;;14.00;47.34;100738.91;4114261;28;20045;-66
2023/05/10 01:50:57;;;;;;;;;;;;;;;13.96;47.58;100735.72;4112375;28;20371;-66
2023/05/10 01:52:59;;;;;;;;;;;;;;;13.94;47.69;100734.28;4113871;28;20033;-66
2023/05/10 01:55:03;;;;;;;;;;;;;;;13.92;47.57;100734.47;4113635;28;20029;-66
2023/05/10 01:57:07;;;;;;;;;;;;;;;13.85;47.93;100739.00;4118107;28;20016;-66
2023/05/10 01:59:14;;;;;;;;;;;;;;;13.81;47.95;100733.13;4088567;29;21352;-67
2023/05/10 02:01:16;;;;;;;;;;;;;;;13.91;47.31;100726.53;4120258;28;20025;-67
2023/05/10 02:03:18;;;;;;;;;;;;;;;13.87;47.51;100732.34;4113410;28;19953;-66
2023/05/10 02:05:22;;;;;;;;;;;;;;;13.86;47.43;100733.38;4112901;28;20371;-66
2023/05/10 02:07:24;;;;;;;;;;;;;;;13.88;47.85;100730.47;4114401;28;20041;-66
2023/05/10 02:09:26;;;;;;;;;;;;;;;13.89;47.34;100724.00;4114280;28;20041;-66
2023/05/10 02:11:28;;;;;;;;;;;;;;;13.83;48.05;100730.22;4113249;28;20025;-67
2023/05/10 02:13:30;;;;;;;;;;;;;;;13.72;48.56;100728.06;4120302;28;20067;-67
2023/05/10 02:15:32;;;;;;;;;;;;;;;13.65;48.34;100726.16;4111937;28;20048;-67
2023/05/10 02:17:34;;;;;;;;;;;;;;;13.66;48.12;100725.09;4114131;28;20017;-67
2023/05/10 02:19:39;;;;;;;;;;;;;;;13.64;48.63;100723.63;4114422;28;20809;-67
2023/05/10 02:21:42;;;;;;;;;;;;;;;13.60;48.42;100725.03;4120410;28;20016;-67
2023/05/10 02:23:44;;;;;;;;;;;;;;;13.62;48.50;100721.13;4113532;28;19934;-67
2023/05/10 02:25:46;;;;;;;;;;;;;;;13.60;48.67;100719.63;4114081;28;20428;-67
2023/05/10 02:27:49;;;;;;;;;;;;;;;13.58;48.60;100717.09;4112157;28;19990;-66
2023/05/10 02:29:51;;;;;;;;;;;;;;;13.61;48.43;100721.31;4113583;28;19926;-67
2023/05/10 02:31:54;;;;;;;;;;;;;;;13.57;48.81;100718.13;4112187;28;20025;-67
2023/05/10 02:33:56;;;;;;;;;;;;;;;13.51;48.74;100719.78;4114218;28;20017;-67
2023/05/10 02:35:58;;;;;;;;;;;;;;;13.48;48.90;100719.34;4114114;28;20033;-66
2023/05/10 02:38:01;;;;;;;;;;;;;;;13.45;48.92;100720.56;4112668;28;20454;-67
2023/05/10 02:40:07;;;;;;;;;;;;;;;13.50;48.81;100711.84;4120167;28;20032;-66
2023/05/10 02:42:09;;;;;;;;;;;;;;;13.49;48.88;100716.44;4120258;28;20445;-67
2023/05/10 02:44:11;;;;;;;;;;;;;;;13.47;49.10;100721.19;4112268;28;19965;-66
2023/05/10 02:46:13;;;;;;;;;;;;;;;13.44;49.07;100716.16;4113878;28;20367;-66
2023/05/10 02:48:15;;;;;;;;;;;;;;;13.41;49.02;100711.13;4112206;28;20017;-67
2023/05/10 02:50:17;;;;;;;;;;;;;;;13.41;49.37;100715.72;4114315;28;20016;-66
2023/05/10 02:52:20;;;;;;;;;;;;;;;13.39;49.27;100706.94;4112472;28;20472;-67
2023/05/10 02:54:25;;;;;;;;;;;;;;;13.38;49.25;100707.97;4113497;28;20009;-67
2023/05/10 02:56:30;;;;;;;;;;;;;;;13.38;49.07;100706.09;4104670;28;20033;-67
2023/05/10 02:58:32;;;;;;;;;;;;;;;13.40;48.87;100717.59;4112574;28;19993;-66
2023/05/10 03:00:34;;;;;;;;;;;;;;;13.34;49.06;100711.06;4112965;28;20017;-66
2023/05/10 03:02:36;;;;;;;;;;;;;;;13.31;49.55;100721.47;4110971;28;20028;-66
2023/05/10 03:04:38;;;;;;;;;;;;;;;13.30;49.37;100711.63;4118496;28;20404;-66
2023/05/10 03:06:40;;;;;;;;;;;;;;;13.31;49.28;100722.28;4113194;28;20013;-67
2023/05/10 03:08:42;;;;;;;;;;;;;;;13.32;48.99;100717.69;4111768;28;20016;-66
2023/05/10 03:10:55;;;;;;;;;;;;;;;13.30;49.23;100714.34;4114067;28;20018;-67
2023/05/10 03:13:08;;;;;;;;;;;;;;;13.31;49.14;100706.00;4110818;28;20688;-67
2023/05/10 03:15:13;;;;;;;;;;;;;;;13.30;49.17;100708.91;4113198;28;20022;-67
2023/05/10 03:17:16;;;;;;;;;;;;;;;13.21;49.33;100712.81;4112059;28;20017;-67
2023/05/10 03:19:22;;;;;;;;;;;;;;;13.15;49.71;100704.41;4119836;28;20464;-67
2023/05/10 03:21:25;;;;;;;;;;;;;;;13.09;49.59;100710.63;4112765;28;20351;-67
2023/05/10 03:23:31;;;;;;;;;;;;;;;13.05;49.64;100716.63;4119656;28;20017;-66
2023/05/10 03:25:33;;;;;;;;;;;;;;;13.01;50.11;100715.31;4113097;28;19953;-67
2023/05/10 03:27:42;;;;;;;;;;;;;;;13.09;49.08;100712.50;4104118;28;19930;-66
2023/05/10 03:29:46;;;;;;;;;;;;;;;13.07;49.64;100711.84;4113735;28;19964;-67
2023/05/10 03:31:49;;;;;;;;;;;;;;;13.06;49.61;100704.75;4109531;28;20021;-67
2023/05/10 03:33:52;;;;;;;;;;;;;;;13.09;49.47;100709.78;4112853;28;20025;-67
2023/05/10 03:35:59;;;;;;;;;;;;;;;12.99;50.00;100707.38;4103306;28;20097;-67
2023/05/10 03:38:02;;;;;;;;;;;;;;;12.98;49.81;100708.44;4120350;28;20364;-67
2023/05/10 03:40:04;;;;;;;;;;;;;;;12.98;49.60;100706.56;4119558;28;20041;-67
2023/05/10 03:42:11;;;;;;;;;;;;;;;13.00;49.60;100703.66;4109265;28;20025;-67
2023/05/10 03:44:16;;;;;;;;;;;;;;;12.98;49.57;100711.16;4112086;28;20375;-67
2023/05/10 03:46:18;;;;;;;;;;;;;;;13.03;49.63;100714.09;4113240;28;20379;-67
2023/05/10 03:48:20;;;;;;;;;;;;;;;13.09;49.05;100707.06;4110639;28;20025;-67
2023/05/10 03:50:23;;;;;;;;;;;;;;;13.09;49.15;100707.91;4113465;28;20029;-67
2023/05/10 03:52:25;;;;;;;;;;;;;;;13.07;49.16;100709.13;4112261;28;20173;-67
2023/05/10 03:54:27;;;;;;;;;;;;;;;13.07;48.88;100701.00;4113705;28;20033;-67
2023/05/10 03:56:29;;;;;;;;;;;;;;;13.00;50.04;100706.34;4111642;28;20074;-67
2023/05/10 03:58:32;;;;;;;;;;;;;;;12.95;49.99;100703.41;4111399;28;20432;-67
2023/05/10 04:00:35;;;;;;;;;;;;;;;12.94;49.92;100702.53;4111818;28;20017;-67
2023/05/10 04:02:38;;;;;;;;;;;;;;;12.95;49.81;100704.22;4110699;28;20476;-67
2023/05/10 04:04:40;;;;;;;;;;;;;;;13.02;49.24;100706.16;4110532;28;20020;-67
2023/05/10 04:06:42;;;;;;;;;;;;;;;13.04;49.37;100710.38;4119535;28;20431;-67
2023/05/10 04:08:45;;;;;;;;;;;;;;;13.01;49.57;100704.47;4113571;28;20029;-67
2023/05/10 04:10:47;;;;;;;;;;;;;;;13.02;49.13;100707.00;4113411;28;20497;-67
2023/05/10 04:12:49;;;;;;;;;;;;;;;12.95;49.60;100701.50;4110905;28;20356;-67
2023/05/10 04:14:51;;;;;;;;;;;;;;;12.93;49.61;100706.31;4113637;28;20029;-67
2023/05/10 04:16:55;;;;;;;;;;;;;;;13.01;49.33;100696.34;4114228;28;20036;-67
2023/05/10 04:18:57;;;;;;;;;;;;;;;13.07;48.66;100692.84;4115855;28;20049;-67
2023/05/10 04:20:59;;;;;;;;;;;;;;;13.07;48.47;100695.56;4116209;28;20009;-67
2023/05/10 04:23:01;;;;;;;;;;;;;;;13.06;48.83;100694.75;4112747;28;20020;-67
2023/05/10 04:25:04;;;;;;;;;;;;;;;13.05;49.23;100693.06;4115145;28;20024;-67
2023/05/10 04:27:06;;;;;;;;;;;;;;;13.11;48.28;100689.56;4116087;28;19937;-67
2023/05/10 04:29:08;;;;;;;;;;;;;;;13.12;48.63;100701.28;4114465;28;20020;-67
2023/05/10 04:31:10;;;;;;;;;;;;;;;13.06;48.91;100693.91;4114311;28;20018;-67
2023/05/10 04:33:14;;;;;;;;;;;;;;;13.13;48.08;100697.50;4113391;28;19958;-67
2023/05/10 04:35:18;;;;;;;;;;;;;;;13.13;48.08;100692.09;4115890;28;20211;-67
2023/05/10 04:37:21;;;;;;;;;;;;;;;13.14;48.34;100691.06;4114336;28;20022;-67
2023/05/10 04:39:23;;;;;;;;;;;;;;;13.13;48.71;100692.09;4115112;28;20461;-66
2023/05/10 04:41:25;;;;;;;;;;;;;;;13.15;48.24;100700.88;4115094;28;20013;-67
2023/05/10 04:43:27;;;;;;;;;;;;;;;13.12;48.52;100695.84;4113444;28;19970;-66
2023/05/10 04:45:30;;;;;;;;;;;;;;;13.11;48.58;100697.69;4114781;28;20012;-67
2023/05/10 04:47:32;;;;;;;;;;;;;;;13.09;48.87;100697.06;4115249;28;19930;-67
2023/05/10 04:49:35;;;;;;;;;;;;;;;13.13;48.42;100694.78;4115799;28;20020;-66
2023/05/10 04:51:42;;;;;;;;;;;;;;;13.11;48.76;100688.72;4114673;28;19930;-67
2023/05/10 04:53:44;;;;;;;;;;;;;;;13.11;49.00;100688.72;4114993;28;19926;-67
2023/05/10 04:55:46;;;;;;;;;;;;;;;13.04;49.62;100688.69;4114259;28;20025;-67
2023/05/10 04:57:48;;;;;;;;;;;;;;;13.04;49.37;100694.09;4113270;28;20502;-67
2023/05/10 04:59:50;;;;;;;;;;;;;;;13.06;48.94;100689.31;4114876;28;20001;-67
2023/05/10 05:01:55;;;;;;;;;;;;;;;13.03;49.57;100688.88;4113983;28;20435;-67
2023/05/10 05:03:57;;;;;;;;;;;;;;;13.05;49.48;100684.91;4114375;28;20053;-67
2023/05/10 05:06:01;;;;;;;;;;;;;;;13.12;48.97;100690.44;4115637;28;19969;-66
2023/05/10 05:08:03;;;;;;;;;;;;;;;13.16;48.65;100692.56;4115338;28;20031;-66
2023/05/10 05:10:05;;;;;;;;;;;;;;;13.23;48.73;100684.47;4113375;28;20028;-67
2023/05/10 05:12:13;;;;;;;;;;;;;;;13.30;48.14;100687.22;4113943;28;20028;-67
2023/05/10 05:14:15;;;;;;;;;;;;;;;13.32;48.21;100698.69;4115168;28;20809;-67
2023/05/10 05:16:18;;;;;;;;;;;;;;;13.34;48.41;100677.69;4115336;28;19934;-67
2023/05/10 05:18:20;;;;;;;;;;;;;;;13.40;48.33;100681.47;4114268;28;20138;-66
2023/05/10 05:20:22;;;;;;;;;;;;;;;13.38;48.12;100691.69;4114478;28;20434;-65
2023/05/10 05:22:27;;;;;;;;;;;;;;;13.37;48.05;100685.44;4114178;28;20029;-67
2023/05/10 05:24:29;;;;;;;;;;;;;;;13.41;48.24;100683.16;4113966;28;20005;-66
2023/05/10 05:26:31;;;;;;;;;;;;;;;13.40;48.29;100686.91;4113223;28;20028;-67
2023/05/10 05:28:37;;;;;;;;;;;;;;;13.43;48.32;100684.66;4113357;28;19926;-66
2023/05/10 05:30:40;;;;;;;;;;;;;;;13.41;48.35;100683.16;4113568;28;20049;-66
2023/05/10 05:32:42;;;;;;;;;;;;;;;13.39;48.63;100682.53;4112660;28;20025;-66
2023/05/10 05:34:45;;;;;;;;;;;;;;;13.40;48.96;100678.75;4113378;28;20022;-67
2023/05/10 05:36:47;;;;;;;;;;;;;;;13.44;48.51;100677.34;4113563;28;20020;-66
2023/05/10 05:38:50;;;;;;;;;;;;;;;13.45;48.54;100681.75;4112512;28;20611;-67
2023/05/10 05:40:52;;;;;;;;;;;;;;;13.45;48.65;100679.03;4113990;28;20428;-67
2023/05/10 05:42:54;;;;;;;;;;;;;;;13.49;48.42;100673.03;4112879;28;20029;-67
2023/05/10 05:44:56;;;;;;;;;;;;;;;13.52;48.52;100680.72;4109777;28;20024;-67
2023/05/10 05:46:58;;;;;;;;;;;;;;;13.52;48.89;100679.91;4111635;28;20025;-67
2023/05/10 05:49:01;;;;;;;;;;;;;;;13.53;48.38;100676.16;4103090;28;20000;-67
2023/05/10 05:51:03;;;;;;;;;;;;;;;13.55;48.75;100668.66;4113699;28;20456;-67
2023/05/10 05:53:05;;;;;;;;;;;;;;;13.56;48.80;100670.34;4113518;28;20020;-67
2023/05/10 05:55:09;;;;;;;;;;;;;;;13.61;48.88;100670.56;4114286;28;19930;-67
2023/05/10 05:57:11;;;;;;;;;;;;;;;13.59;49.36;100663.66;4115039;28;19956;-67
2023/05/10 05:59:14;;;;;;;;;;;;;;;13.60;48.98;100670.78;4114896;28;20014;-67
2023/05/10 06:01:17;;;;;;;;;;;;;;;13.69;48.64;100662.28;4113411;28;20013;-67
2023/05/10 06:03:19;;;;;;;;;;;;;;;13.72;49.35;100671.06;4110576;28;20456;-67
2023/05/10 06:05:21;;;;;;;;;;;;;;;13.70;49.43;100673.97;4113962;28;20045;-67
2023/05/10 06:07:26;;;;;;;;;;;;;;;13.73;49.13;100667.31;4114232;28;20013;-67
2023/05/10 06:09:28;;;;;;;;;;;;;;;13.77;48.44;100674.00;4114116;28;19930;-67
2023/05/10 06:11:33;;;;;;;;;;;;;;;13.79;48.25;100669.22;4112766;28;20012;-66
2023/05/10 06:13:35;;;;;;;;;;;;;;;13.83;48.52;100668.63;4113740;28;20044;-67
2023/05/10 06:15:37;;;;;;;;;;;;;;;13.85;48.85;100676.56;4113549;28;20061;-66
2023/05/10 06:17:40;;;;;;;;;;;;;;;13.87;49.03;100674.47;4114077;28;20030;-66
2023/05/10 06:19:41;;;;;;;;;;;;;;;13.87;49.09;100675.34;4110445;28;20422;-67
2023/05/10 06:21:44;;;;;;;;;;;;;;;13.95;48.89;100668.91;4102495;28;20032;-67
2023/05/10 06:23:45;;;;;;;;;;;;;;;13.97;48.94;100669.53;4102543;28;20037;-67
2023/05/10 06:25:50;;;;;;;;;;;;;;;13.97;48.58;100671.41;4098807;28;20021;-67
2023/05/10 06:27:57;;;;;;;;;;;;;;;14.02;48.60;100675.19;4096399;28;20025;-67
2023/05/10 06:30:00;;;;;;;;;;;;;;;14.08;48.40;100684.41;4092259;28;20692;-67
2023/05/10 06:32:02;;;;;;;;;;;;;;;14.10;49.09;100676.91;4101737;28;20025;-67
2023/05/10 06:34:04;;;;;;;;;;;;;;;14.16;48.51;100683.41;4112558;28;20033;-67
2023/05/10 06:36:06;;;;;;;;;;;;;;;14.20;48.70;100676.50;4112661;28;20028;-67
2023/05/10 06:38:08;;;;;;;;;;;;;;;14.23;48.43;100670.69;4113149;28;20025;-66
2023/05/10 06:40:10;;;;;;;;;;;;;;;14.27;48.52;100671.97;4114325;28;19972;-67
2023/05/10 06:42:12;;;;;;;;;;;;;;;14.29;48.14;100674.47;4111191;28;20012;-67
2023/05/10 06:44:16;;;;;;;;;;;;;;;14.31;48.10;100667.81;4113161;28;20024;-67
2023/05/10 06:46:19;;;;;;;;;;;;;;;14.36;48.19;100676.19;4113387;28;20017;-67
2023/05/10 06:48:21;;;;;;;;;;;;;;;14.37;48.19;100677.00;4113761;28;20009;-67
2023/05/10 06:50:23;;;;;;;;;;;;;;;14.40;48.60;100676.59;4112594;28;20384;-67
2023/05/10 06:52:25;;;;;;;;;;;;;;;14.40;48.69;100672.03;4111604;28;20024;-67
2023/05/10 06:54:27;;;;;;;;;;;;;;;14.43;49.04;100684.34;4112655;28;20367;-67
2023/05/10 06:56:29;;;;;;;;;;;;;;;14.46;48.44;100677.66;4111301;28;20487;-66
2023/05/10 06:58:32;;;;;;;;;;;;;;;14.52;48.44;100677.69;4112349;28;20045;-67
2023/05/10 07:00:38;;;;;;;;;;;;;;;14.55;48.06;100674.56;4112132;28;20024;-67
2023/05/10 07:02:41;;;;;;;;;;;;;;;14.57;48.30;100668.91;4112266;28;20028;-67
2023/05/10 07:04:43;;;;;;;;;;;;;;;14.57;48.39;100672.47;4111681;28;20013;-67
2023/05/10 07:06:46;;;;;;;;;;;;;;;14.62;48.26;100674.59;4111724;28;20397;-67
2023/05/10 07:08:48;;;;;;;;;;;;;;;14.65;47.94;100671.47;4113978;28;20024;-67
2023/05/10 07:10:50;;;;;;;;;;;;;;;14.70;47.73;100668.13;4113919;28;20021;-67
2023/05/10 07:12:51;;;;;;;;;;;;;;;14.72;47.75;100679.66;4110697;28;20016;-67
2023/05/10 07:14:53;;;;;;;;;;;;;;;14.76;47.73;100670.03;4106240;28;20029;-67
2023/05/10 07:16:57;;;;;;;;;;;;;;;14.77;47.83;100669.00;4111955;28;20028;-67
2023/05/10 07:19:02;;;;;;;;;;;;;;;14.80;47.74;100668.59;4111792;28;20025;-67
2023/05/10 07:21:04;;;;;;;;;;;;;;;14.85;47.68;100662.53;4112364;28;20041;-67
2023/05/10 07:23:06;;;;;;;;;;;;;;;14.88;47.93;100660.22;4112837;28;20018;-67
2023/05/10 07:25:08;;;;;;;;;;;;;;;14.93;47.29;100662.31;4113133;28;20021;-67
2023/05/10 07:27:10;;;;;;;;;;;;;;;14.95;47.64;100655.63;4112301;28;20024;-67
2023/05/10 07:29:12;;;;;;;;;;;;;;;14.99;47.55;100666.94;4111683;28;20375;-67
2023/05/10 07:31:14;;;;;;;;;;;;;;;15.04;47.39;100664.41;4111951;28;19930;-67
2023/05/10 07:33:17;;;;;;;;;;;;;;;15.06;48.18;100661.50;4113021;28;20017;-66
2023/05/10 07:35:19;;;;;;;;;;;;;;;15.09;47.61;100658.34;4112233;28;20017;-67
2023/05/10 07:37:22;;;;;;;;;;;;;;;15.12;47.59;100666.09;4111614;28;20029;-66
2023/05/10 07:39:24;;;;;;;;;;;;;;;15.17;47.12;100662.75;4113126;28;20028;-67
2023/05/10 07:41:27;;;;;;;;;;;;;;;15.22;47.15;100654.78;4112193;28;20052;-67
2023/05/10 07:43:28;;;;;;;;;;;;;;;15.23;47.01;100656.47;4112187;28;20034;-66
2023/05/10 07:45:31;;;;;;;;;;;;;;;15.27;47.05;100661.28;4112178;28;20030;-67
2023/05/10 07:47:33;;;;;;;;;;;;;;;15.28;47.33;100656.66;4113157;28;20028;-66
2023/05/10 07:49:37;;;;;;;;;;;;;;;15.30;47.19;100665.47;4113080;28;20021;-66
2023/05/10 07:51:39;;;;;;;;;;;;;;;15.34;47.00;100655.00;4116080;28;20067;-66
2023/05/10 07:53:41;;;;;;;;;;;;;;;15.38;47.29;100645.38;4115236;28;20033;-66
2023/05/10 07:55:43;;;;;;;;;;;;;;;15.40;47.16;100649.53;4114330;28;20032;-66
2023/05/10 07:57:45;;;;;;;;;;;;;;;15.40;47.08;100649.53;4116328;28;20024;-66
2023/05/10 07:59:47;;;;;;;;;;;;;;;15.44;47.08;100656.25;4114934;28;20471;-66
2023/05/10 08:01:49;;;;;;;;;;;;;;;15.45;46.98;100657.94;4112732;28;20020;-67
2023/05/10 08:03:53;;;;;;;;;;;;;;;15.49;47.00;100658.34;4115035;28;20021;-67
2023/05/10 08:05:56;;;;;;;;;;;;;;;15.55;47.01;100653.91;4115229;28;20018;-67
2023/05/10 08:07:59;;;;;;;;;;;;;;;15.57;47.09;100660.00;4113674;28;20693;-67
2023/05/10 08:10:01;;;;;;;;;;;;;;;15.59;46.73;100652.47;4114815;28;20017;-67
2023/05/10 08:12:03;;;;;;;;;;;;;;;15.61;47.38;100655.78;4115641;28;19937;-67
2023/05/10 08:14:05;;;;;;;;;;;;;;;15.62;46.86;100655.59;4115244;28;20009;-67
2023/05/10 08:16:07;;;;;;;;;;;;;;;15.65;46.86;100659.78;4114774;28;20025;-66
2023/05/10 08:18:09;;;;;;;;;;;;;;;15.67;46.90;100660.38;4113959;28;20021;-66
2023/05/10 08:20:12;;;;;;;;;;;;;;;15.72;46.70;100654.31;4114848;28;20009;-67
2023/05/10 08:22:16;;;;;;;;;;;;;;;15.74;46.94;100658.50;4114561;28;20008;-66
2023/05/10 08:24:18;;;;;;;;;;;;;;;15.79;46.79;100657.91;4122339;28;20024;-67
2023/05/10 08:26:20;;;;;;;;;;;;;;;15.82;46.52;100649.31;4114130;28;20387;-66
2023/05/10 08:28:22;;;;;;;;;;;;;;;15.80;47.00;100651.41;4115443;28;20495;-66
2023/05/10 08:30:24;;;;;;;;;;;;;;;15.82;46.98;100654.75;4115171;28;20017;-66
2023/05/10 08:32:26;;;;;;;;;;;;;;;15.84;46.70;100653.47;4114761;28;20417;-67
2023/05/10 08:34:28;;;;;;;;;;;;;;;15.85;46.94;100646.97;4114290;28;20524;-67
2023/05/10 08:36:31;;;;;;;;;;;;;;;15.87;47.10;100652.22;4114669;28;20021;-67
2023/05/10 08:38:35;;;;;;;;;;;;;;;15.93;46.58;100653.25;4114905;28;20030;-66
2023/05/10 08:40:37;;;;;;;;;;;;;;;15.97;46.53;100654.47;4115296;28;20013;-67
2023/05/10 08:42:41;;;;;;;;;;;;;;;15.96;46.84;100650.94;4114749;28;20021;-67
2023/05/10 08:44:44;;;;;;;;;;;;;;;16.00;46.74;100649.44;4114519;28;20017;-67
2023/05/10 08:46:47;;;;;;;;;;;;;;;16.04;46.73;100655.28;4114540;28;20025;-67
2023/05/10 08:48:49;;;;;;;;;;;;;;;16.03;46.58;100659.91;4115292;28;20038;-67
2023/05/10 08:50:52;;;;;;;;;;;;;;;16.07;46.64;100654.03;4115330;28;20021;-66
2023/05/10 08:52:55;;;;;;;;;;;;;;;16.08;46.54;100655.69;4114318;28;19966;-67
2023/05/10 08:54:59;;;;;;;;;;;;;;;16.09;46.85;100658.19;4115040;28;20353;-67
2023/05/10 08:57:01;;;;;;;;;;;;;;;16.08;46.82;100656.56;4114405;28;20033;-66
2023/05/10 08:59:03;;;;;;;;;;;;;;;16.12;46.84;100662.41;4114427;28;20053;-67
2023/05/10 09:01:06;;;;;;;;;;;;;;;16.17;46.84;100666.13;4113974;28;20017;-66
2023/05/10 09:03:08;;;;;;;;;;;;;;;16.19;46.94;100655.00;4114280;28;20013;-66
2023/05/10 09:05:10;;;;;;;;;;;;;;;16.25;46.86;100662.31;4113794;28;20037;-66
2023/05/10 09:07:12;;;;;;;;;;;;;;;16.30;46.48;100661.69;4114670;28;20025;-66
2023/05/10 09:09:15;;;;;;;;;;;;;;;16.31;46.36;100661.47;4113000;28;20009;-70
2023/05/10 09:11:18;;;;;;;;;;;;;;;16.34;46.78;100655.56;4113382;28;20025;-66
2023/05/10 09:13:20;;;;;;;;;;;;;;;16.37;46.85;100657.03;4113266;28;19977;-67
2023/05/10 09:15:22;;;;;;;;;;;;;;;16.40;46.03;100660.16;4115199;28;20024;-67
2023/05/10 09:17:24;;;;;;;;;;;;;;;16.44;46.16;100659.72;4114694;28;20060;-67
2023/05/10 09:19:26;;;;;;;;;;;;;;;16.41;46.48;100658.28;4113018;28;20021;-67
2023/05/10 09:21:30;;;;;;;;;;;;;;;16.41;46.37;100669.19;4113201;28;20038;-67
2023/05/10 09:23:32;;;;;;;;;;;;;;;16.43;46.41;100664.34;4113732;28;20021;-67
2023/05/10 09:25:34;;;;;;;;;;;;;;;16.45;46.59;100658.69;4114282;28;20024;-67
2023/05/10 09:27:39;;;;;;;;;;;;;;;16.46;46.44;100666.63;4114020;28;20375;-67
2023/05/10 09:29:42;;;;;;;;;;;;;;;16.52;46.19;100662.19;4113841;28;20487;-67
2023/05/10 09:31:46;;;;;;;;;;;;;;;16.51;46.34;100660.53;4113566;28;20033;-67
2023/05/10 09:33:50;;;;;;;;;;;;;;;16.51;46.49;100663.25;4113621;28;20633;-67
2023/05/10 09:35:52;;;;;;;;;;;;;;;16.52;46.72;100662.19;4113465;28;20021;-67
2023/05/10 09:37:55;;;;;;;;;;;;;;;16.57;46.77;100676.84;4113506;28;20013;-67
2023/05/10 09:39:57;;;;;;;;;;;;;;;16.58;46.66;100666.78;4114113;28;20026;-67
2023/05/10 09:42:00;;;;;;;;;;;;;;;16.62;46.50;100659.00;4113260;28;20013;-67
2023/05/10 09:44:04;;;;;;;;;;;;;;;16.67;46.29;100661.91;4113364;28;20069;-67
2023/05/10 09:46:09;;;;;;;;;;;;;;;16.70;45.93;100656.00;4114850;28;20460;-67
2023/05/10 09:48:11;;;;;;;;;;;;;;;16.72;46.00;100662.94;4113383;28;20016;-67
2023/05/10 09:50:13;;;;;;;;;;;;;;;16.70;46.22;100669.66;4114387;28;20020;-67
2023/05/10 09:52:15;;;;;;;;;;;;;;;16.74;46.27;100665.44;4111684;28;20444;-67
2023/05/10 09:54:17;;;;;;;;;;;;;;;16.75;46.24;100664.38;4114021;28;19977;-66
2023/05/10 09:56:33;;;;;;;;;;;;;;;16.79;46.26;100667.50;4114373;28;20029;-67
2023/05/10 09:58:37;;;;;;;;;;;;;;;16.82;45.73;100675.22;4113367;28;20020;-67
2023/05/10 10:00:41;;;;;;;;;;;;;;;16.82;45.92;100662.44;4112483;28;20363;-67
2023/05/10 10:02:43;;;;;;;;;;;;;;;16.83;45.97;100672.28;4113633;28;20376;-67
2023/05/10 10:04:45;;;;;;;;;;;;;;;16.88;46.14;100663.47;4113592;28;20021;-67
2023/05/10 10:06:47;;;;;;;;;;;;;;;16.90;45.91;100664.94;4113223;28;20021;-67
2023/05/10 10:08:49;;;;;;;;;;;;;;;16.95;45.49;100664.25;4114327;28;20464;-67
2023/05/10 10:10:51;;;;;;;;;;;;;;;16.95;45.81;100667.00;4113752;28;20017;-67
2023/05/10 10:12:53;;;;;;;;;;;;;;;16.96;46.02;100662.38;4112619;28;20399;-67
2023/05/10 10:14:56;;;;;;;;;;;;;;;16.96;46.16;100657.75;4113342;28;20109;-67
2023/05/10 10:17:01;;;;;;;;;;;;;;;17.03;45.86;100663.16;4113731;28;20013;-67
2023/05/10 10:19:03;;;;;;;;;;;;;;;17.04;45.39;100660.22;4105129;28;20013;-67
2023/05/10 10:21:06;;;;;;;;;;;;;;;17.02;45.70;100665.06;4113256;28;20016;-67
2023/05/10 10:23:08;;;;;;;;;;;;;;;17.00;45.77;100656.25;4112944;28;20024;-67
2023/05/10 10:25:11;;;;;;;;;;;;;;;17.02;45.56;100653.28;4112755;28;20033;-67
2023/05/10 10:27:16;;;;;;;;;;;;;;;17.01;45.78;100659.81;4113438;28;20028;-67
2023/05/10 10:29:21;;;;;;;;;;;;;;;17.09;45.66;100662.28;4112840;28;20016;-67
2023/05/10 10:31:25;;;;;;;;;;;;;;;17.13;45.75;100655.28;4113006;28;20020;-67